Time;durP1;ratioP1;P1;durP2;ratioP2;P2;SDS_P1;SDS_P2;PMS_P1;PMS_P2;Temp;Humidity;BMP_temperature;BMP_pressure;BME280_temperature;BME280_humidity;BME280_pressure;Samples;Min_cycle;Max_cycle;Signal;HPM_P1;HPM_P2
2022/08/01 00:04:17;;;;;;;3.60;3.30;;;;;24.10;98861.00;;;;16808056;28;20221;-80
2022/08/01 00:12:21;;;;;;;3.13;2.83;;;;;24.50;98871.00;;;;16806638;28;20239;-80
2022/08/01 00:20:24;;;;;;;3.50;2.90;;;;;24.10;98873.00;;;;16800526;28;20225;-81
2022/08/01 00:28:27;;;;;;;3.93;2.70;;;;;23.80;98879.00;;;;16792907;28;20243;-81
2022/08/01 00:36:30;;;;;;;3.37;3.07;;;;;23.40;98877.00;;;;16775871;28;20215;-78
2022/08/01 00:44:34;;;;;;;3.33;3.13;;;;;23.80;98892.00;;;;16770719;28;20233;-78
2022/08/01 00:52:36;;;;;;;3.60;3.30;;;;;22.90;98886.00;;;;16773234;28;20320;-78
2022/08/01 01:00:40;;;;;;;3.73;3.43;;;;;22.90;98892.00;;;;16762812;28;20349;-78
2022/08/01 01:08:51;;;;;;;3.83;3.53;;;;;22.90;98884.00;;;;16766356;28;20295;-78
2022/08/01 01:16:55;;;;;;;3.87;3.57;;;;;23.10;98888.00;;;;16775168;28;20221;-78
2022/08/01 01:25:11;;;;;;;4.20;3.80;;;;;22.70;98892.00;;;;16764279;28;20375;-77
2022/08/01 01:33:15;;;;;;;3.63;3.30;;;;;23.10;98889.00;;;;16778642;28;20221;-80
2022/08/01 01:41:19;;;;;;;6.93;3.67;;;;;23.00;98899.00;;;;16796490;28;20221;-80
2022/08/01 01:49:24;;;;;;;3.70;3.40;;;;;23.90;98906.00;;;;16812993;28;20263;-80
2022/08/01 01:57:27;;;;;;;3.43;3.13;;;;;24.30;98897.00;;;;16798185;28;20237;-80
2022/08/01 02:05:34;;;;;;;3.93;3.60;;;;;24.90;98890.00;;;;16803405;28;20228;-80
2022/08/01 02:13:38;;;;;;;4.03;3.63;;;;;24.70;98905.00;;;;16803783;28;20193;-81
2022/08/01 02:21:45;;;;;;;4.40;4.00;;;;;24.70;98910.00;;;;16779317;28;20303;-80
2022/08/01 02:29:53;;;;;;;4.73;4.10;;;;;23.80;98907.00;;;;16781347;28;20309;-80
2022/08/01 02:37:59;;;;;;;4.53;3.73;;;;;24.10;98914.00;;;;16777351;28;20221;-80
2022/08/01 02:46:03;;;;;;;4.00;3.70;;;;;23.30;98921.00;;;;16817747;28;20249;-80
2022/08/01 02:54:09;;;;;;;4.30;3.47;;;;;22.80;98933.00;;;;16797749;28;20209;-80
2022/08/01 03:02:12;;;;;;;3.70;3.40;;;;;22.30;98933.00;;;;16789479;28;20724;-81
2022/08/01 03:10:17;;;;;;;4.13;3.83;;;;;22.70;98938.00;;;;16790109;28;20210;-81
2022/08/01 03:18:20;;;;;;;4.07;3.77;;;;;23.20;98928.00;;;;16791704;28;20252;-81
2022/08/01 03:26:25;;;;;;;4.57;4.17;;;;;22.40;98938.00;;;;16781508;28;20303;-81
2022/08/01 03:34:28;;;;;;;5.20;4.30;;;;;22.50;98938.00;;;;16798627;28;20236;-80
2022/08/01 03:42:36;;;;;;;4.27;3.87;;;;;22.40;98939.00;;;;16806277;28;20233;-80
2022/08/01 03:50:42;;;;;;;4.33;4.03;;;;;22.50;98945.00;;;;16819708;28;20299;-80
2022/08/01 03:58:47;;;;;;;5.03;4.63;;;;;22.70;98940.00;;;;16795729;28;20720;-80
2022/08/01 04:06:53;;;;;;;4.00;3.70;;;;;22.80;98932.00;;;;16790333;28;20229;-80
2022/08/01 04:14:57;;;;;;;5.10;3.93;;;;;22.70;98940.00;;;;16806318;28;20201;-80
2022/08/01 04:23:00;;;;;;;4.30;3.90;;;;;24.00;98940.00;;;;16800053;28;20232;-80
2022/08/01 04:31:06;;;;;;;5.00;4.60;;;;;25.00;98944.00;;;;16797104;28;20218;-80
2022/08/01 04:39:09;;;;;;;4.47;4.07;;;;;24.70;98944.00;;;;16779600;28;20226;-77
2022/08/01 04:47:14;;;;;;;6.27;4.10;;;;;25.00;98954.00;;;;16775769;28;20280;-80
2022/08/01 04:55:17;;;;;;;6.70;4.80;;;;;23.60;98962.00;;;;16770939;28;20225;-78
2022/08/01 05:03:21;;;;;;;4.40;4.00;;;;;22.90;98960.00;;;;16769879;28;20620;-78
2022/08/01 05:11:23;;;;;;;4.50;4.10;;;;;23.00;98946.00;;;;16762075;28;20299;-78
2022/08/01 05:19:27;;;;;;;5.50;5.00;;;;;22.50;98942.00;;;;16771059;28;20279;-78
2022/08/01 05:27:29;;;;;;;6.13;4.67;;;;;22.60;98941.00;;;;16755300;28;20221;-78
2022/08/01 05:35:33;;;;;;;6.10;4.83;;;;;23.50;98943.00;;;;16755234;28;20220;-79
2022/08/01 05:43:36;;;;;;;5.33;4.90;;;;;24.30;98951.00;;;;16765649;28;20297;-79
2022/08/01 05:51:39;;;;;;;6.90;4.60;;;;;24.60;98953.00;;;;16760757;28;20646;-78
2022/08/01 05:59:42;;;;;;;8.00;4.60;;;;;24.50;98952.00;;;;16759954;28;20572;-75
2022/08/01 06:07:45;;;;;;;5.00;4.47;;;;;25.00;98955.00;;;;16776646;28;20312;-77
2022/08/01 06:15:48;;;;;;;4.90;4.50;;;;;25.40;98957.00;;;;16775547;28;20209;-77
2022/08/01 06:23:52;;;;;;;5.57;4.60;;;;;25.10;98959.00;;;;16769761;28;20822;-76
2022/08/01 06:31:55;;;;;;;4.97;4.57;;;;;25.60;98961.00;;;;16765922;28;20217;-76
2022/08/01 06:40:02;;;;;;;7.30;4.40;;;;;25.90;98952.00;;;;16754845;28;20249;-76
2022/08/01 06:48:05;;;;;;;3.87;3.33;;;;;26.30;98954.00;;;;16770070;28;20213;-76
2022/08/01 06:56:09;;;;;;;4.53;3.00;;;;;26.50;98968.00;;;;16767716;28;20244;-76
2022/08/01 07:04:11;;;;;;;1.73;1.63;;;;;25.40;98967.00;;;;16768200;28;20601;-76
2022/08/01 07:12:15;;;;;;;2.73;1.90;;;;;25.70;98951.00;;;;16768251;28;20237;-76
2022/08/01 07:20:18;;;;;;;2.07;1.87;;;;;26.20;98957.00;;;;16762549;28;20363;-76
2022/08/01 07:28:21;;;;;;;2.13;1.80;;;;;25.90;98956.00;;;;16756113;28;20321;-76
2022/08/01 07:36:24;;;;;;;2.07;1.97;;;;;26.10;98954.00;;;;16770974;28;20316;-76
2022/08/01 07:44:28;;;;;;;6.37;2.23;;;;;26.60;98950.00;;;;16756323;28;20689;-76
2022/08/01 07:52:31;;;;;;;1.80;1.70;;;;;26.20;98954.00;;;;16756932;28;20222;-76
2022/08/01 08:00:34;;;;;;;5.60;5.10;;;;;27.30;98950.00;;;;16761800;28;20221;-76
2022/08/01 08:08:37;;;;;;;2.40;2.27;;;;;27.80;98947.00;;;;16771087;28;20569;-76
2022/08/01 08:16:41;;;;;;;3.10;2.17;;;;;27.70;98939.00;;;;16770579;28;20778;-76
2022/08/01 08:24:43;;;;;;;3.57;2.87;;;;;27.70;98932.00;;;;16758483;28;20713;-77
2022/08/01 08:32:47;;;;;;;2.53;2.33;;;;;27.00;98940.00;;;;16763703;28;20202;-76
2022/08/01 08:40:50;;;;;;;2.73;2.53;;;;;27.30;98931.00;;;;16761322;28;20339;-76
2022/08/01 08:48:54;;;;;;;2.57;2.37;;;;;28.40;98924.00;;;;16771389;28;20229;-77
2022/08/01 08:56:57;;;;;;;3.23;2.87;;;;;26.80;98934.00;;;;16756134;28;20745;-76
2022/08/01 09:05:01;;;;;;;4.33;3.10;;;;;27.50;98926.00;;;;16766432;28;20695;-76
2022/08/01 09:13:08;;;;;;;3.50;3.20;;;;;28.00;98930.00;;;;16767305;28;20284;-76
2022/08/01 09:21:16;;;;;;;4.63;3.63;;;;;28.20;98936.00;;;;16778906;28;20225;-76
2022/08/01 09:29:21;;;;;;;5.27;4.07;;;;;27.80;98932.00;;;;16774767;28;20633;-76
2022/08/01 09:37:31;;;;;;;5.60;5.10;;;;;28.10;98949.00;;;;16768032;28;20231;-76
2022/08/01 09:45:35;;;;;;;5.60;5.10;;;;;28.30;98952.00;;;;16768413;28;20296;-76
2022/08/01 09:53:46;;;;;;;6.07;5.50;;;;;28.30;98933.00;;;;16767810;28;20250;-76
2022/08/01 10:01:51;;;;;;;6.87;6.03;;;;;28.30;98945.00;;;;16762707;28;20741;-76
2022/08/01 10:09:55;;;;;;;5.40;5.00;;;;;30.20;98937.00;;;;16770727;28;20304;-77
2022/08/01 10:17:59;;;;;;;6.23;5.73;;;;;28.80;98928.00;;;;16773322;28;20308;-76
2022/08/01 10:26:03;;;;;;;7.57;6.90;;;;;30.70;98924.00;;;;16774090;28;20312;-77
2022/08/01 10:34:06;;;;;;;5.97;5.47;;;;;29.60;98917.00;;;;16771322;28;20197;-76
2022/08/01 10:42:12;;;;;;;6.30;5.80;;;;;28.90;98909.00;;;;16765180;28;20725;-76
2022/08/01 10:50:18;;;;;;;4.83;3.83;;;;;29.60;98904.00;;;;16771734;28;20225;-76
2022/08/01 10:58:28;;;;;;;4.63;4.23;;;;;30.20;98916.00;;;;16760658;28;20309;-76
2022/08/01 11:06:43;;;;;;;4.37;4.07;;;;;28.30;98906.00;;;;16773400;28;20217;-76
2022/08/01 11:15:24;;;;;;;3.80;3.50;;;;;28.20;98900.00;;;;16772710;28;20259;-76
2022/08/01 11:23:32;;;;;;;7.97;4.90;;;;;30.70;98885.00;;;;16762482;28;20235;-76
2022/08/01 11:31:36;;;;;;;4.13;3.53;;;;;30.60;98874.00;;;;16768023;28;20697;-76
2022/08/01 11:39:39;;;;;;;3.93;3.63;;;;;29.50;98873.00;;;;16783530;28;20217;-77
2022/08/01 11:47:48;;;;;;;6.77;3.77;;;;;29.70;98874.00;;;;16778050;28;20304;-77
2022/08/01 11:55:52;;;;;;;4.27;3.87;;;;;29.40;98864.00;;;;16771464;28;20277;-76
2022/08/01 12:03:58;;;;;;;5.83;3.70;;;;;29.90;98865.00;;;;16778661;28;20225;-76
2022/08/01 12:12:00;;;;;;;4.37;3.10;;;;;29.50;98851.00;;;;16785909;28;20705;-76
2022/08/01 12:20:06;;;;;;;3.03;2.83;;;;;29.60;98845.00;;;;16766795;28;20233;-76
2022/08/01 12:28:12;;;;;;;4.03;3.10;;;;;29.20;98837.00;;;;16771910;28;20637;-76
2022/08/01 12:36:28;;;;;;;3.43;3.23;;;;;30.50;98826.00;;;;16774525;28;20308;-76
2022/08/01 12:44:31;;;;;;;3.13;2.67;;;;;31.00;98831.00;;;;16779143;28;20221;-77
2022/08/01 12:52:35;;;;;;;3.30;3.00;;;;;29.40;98830.00;;;;16775438;28;20391;-76
2022/08/01 13:00:40;;;;;;;3.50;3.20;;;;;31.80;98831.00;;;;16773882;28;20229;-77
2022/08/01 13:08:44;;;;;;;3.20;3.00;;;;;31.20;98817.00;;;;16758529;28;20241;-77
2022/08/01 13:16:49;;;;;;;4.80;4.03;;;;;33.70;98814.00;;;;16768892;28;20565;-77
2022/08/01 13:24:53;;;;;;;2.93;2.70;;;;;32.70;98809.00;;;;16763059;28;20303;-77
2022/08/01 13:33:00;;;;;;;4.53;3.07;;;;;31.70;98808.00;;;;16758304;28;20311;-76
2022/08/01 13:41:04;;;;;;;3.07;2.77;;;;;30.50;98807.00;;;;16769073;28;20260;-76
2022/08/01 13:49:07;;;;;;;3.27;3.07;;;;;30.20;98814.00;;;;16767937;28;20220;-76
2022/08/01 13:57:11;;;;;;;3.97;3.00;;;;;30.90;98803.00;;;;16764652;28;20311;-77
2022/08/01 14:05:13;;;;;;;2.83;2.63;;;;;31.30;98786.00;;;;16771052;28;20324;-77
2022/08/01 14:13:17;;;;;;;2.60;2.40;;;;;31.10;98801.00;;;;16766912;28;20204;-77
2022/08/01 14:21:20;;;;;;;2.77;2.57;;;;;31.30;98787.00;;;;16766972;28;20221;-77
2022/08/01 14:29:23;;;;;;;2.97;2.23;;;;;31.90;98777.00;;;;16760739;28;20228;-77
2022/08/01 14:37:26;;;;;;;3.10;2.80;;;;;31.90;98783.00;;;;16756618;28;20308;-77
2022/08/01 14:45:30;;;;;;;3.50;2.40;;;;;33.50;98778.00;;;;16770220;28;20375;-77
2022/08/01 14:53:33;;;;;;;3.40;2.80;;;;;32.50;98785.00;;;;16751957;28;20201;-78
2022/08/01 15:01:36;;;;;;;2.90;2.57;;;;;32.20;98786.00;;;;16764323;28;20876;-77
2022/08/01 15:09:39;;;;;;;2.93;2.73;;;;;32.20;98792.00;;;;16769806;28;20220;-77
2022/08/01 15:17:43;;;;;;;3.33;2.57;;;;;31.50;98793.00;;;;16769895;28;20224;-79
2022/08/01 15:25:45;;;;;;;5.30;2.47;;;;;31.90;98783.00;;;;16776990;28;20331;-78
2022/08/01 15:33:49;;;;;;;2.33;2.07;;;;;32.20;98788.00;;;;16770230;28;20201;-78
2022/08/01 15:41:51;;;;;;;4.50;2.40;;;;;30.70;98794.00;;;;16776171;28;20231;-77
2022/08/01 15:49:59;;;;;;;2.53;2.33;;;;;31.30;98800.00;;;;16777758;28;20403;-78
2022/08/01 15:58:01;;;;;;;2.73;2.53;;;;;31.20;98809.00;;;;16778281;28;20227;-78
2022/08/01 16:06:06;;;;;;;2.70;2.50;;;;;30.10;98806.00;;;;16772796;28;20237;-77
2022/08/01 16:14:09;;;;;;;2.50;2.23;;;;;30.30;98794.00;;;;16782477;28;20662;-78
2022/08/01 16:22:13;;;;;;;2.10;1.90;;;;;30.30;98788.00;;;;16769923;28;20228;-78
2022/08/01 16:30:15;;;;;;;3.73;1.83;;;;;29.60;98788.00;;;;16773653;28;20350;-78
2022/08/01 16:38:20;;;;;;;10.83;2.77;;;;;29.90;98794.00;;;;16768577;28;20217;-77
2022/08/01 16:46:23;;;;;;;1.70;1.60;;;;;29.90;98815.00;;;;16764866;28;20221;-74
2022/08/01 16:54:27;;;;;;;2.10;1.97;;;;;29.90;98807.00;;;;16757465;28;20205;-78
2022/08/01 17:02:30;;;;;;;2.07;1.87;;;;;29.70;98809.00;;;;16768287;28;20217;-78
2022/08/01 17:10:34;;;;;;;3.57;2.30;;;;;29.80;98824.00;;;;16777722;28;20652;-78
2022/08/01 17:18:36;;;;;;;2.23;1.70;;;;;29.80;98825.00;;;;16775099;28;20992;-77
2022/08/01 17:26:40;;;;;;;2.23;1.90;;;;;30.20;98834.00;;;;16766730;28;20270;-79
2022/08/01 17:34:43;;;;;;;2.33;1.77;;;;;29.60;98844.00;;;;16761145;28;20205;-76
2022/08/01 17:42:46;;;;;;;5.00;2.90;;;;;29.30;98842.00;;;;16763579;28;20275;-76
2022/08/01 17:50:49;;;;;;;3.10;2.80;;;;;28.50;98866.00;;;;16762792;28;20251;-78
2022/08/01 17:58:53;;;;;;;3.07;2.60;;;;;28.10;98861.00;;;;16758665;28;20296;-76
2022/08/01 18:06:56;;;;;;;4.30;2.70;;;;;27.60;98856.00;;;;16757835;28;20218;-77
2022/08/01 18:15:02;;;;;;;5.93;2.80;;;;;27.70;98870.00;;;;16748839;28;20304;-78
2022/08/01 18:23:08;;;;;;;3.50;3.20;;;;;27.90;98884.00;;;;16756051;28;20569;-77
2022/08/01 18:31:15;;;;;;;3.63;3.33;;;;;27.60;98882.00;;;;16769215;28;20308;-78
2022/08/01 18:39:17;;;;;;;4.30;3.90;;;;;28.40;98885.00;;;;16772136;28;20240;-76
2022/08/01 18:47:21;;;;;;;6.43;5.83;;;;;27.80;98882.00;;;;16783277;28;20236;-76
2022/08/01 18:55:24;;;;;;;3.90;2.97;;;;;28.00;98896.00;;;;16783022;28;20302;-77
2022/08/01 19:03:28;;;;;;;3.37;3.07;;;;;27.70;98898.00;;;;16781442;28;20213;-77
2022/08/01 19:11:31;;;;;;;3.07;2.77;;;;;27.70;98915.00;;;;16779286;28;20232;-78
2022/08/01 19:19:35;;;;;;;8.23;6.63;;;;;27.20;98921.00;;;;16763988;28;20236;-77
2022/08/01 19:27:41;;;;;;;5.43;4.17;;;;;27.10;98921.00;;;;16771102;28;20229;-77
2022/08/01 19:35:45;;;;;;;3.43;2.80;;;;;27.00;98936.00;;;;16779243;28;20227;-77
2022/08/01 19:43:47;;;;;;;3.63;3.33;;;;;27.00;98952.00;;;;16783879;28;20235;-78
2022/08/01 19:51:53;;;;;;;3.30;2.80;;;;;26.50;98992.00;;;;16778658;28;20368;-76
2022/08/01 19:59:56;;;;;;;4.10;2.73;;;;;26.90;99017.00;;;;16779909;28;20225;-77
2022/08/01 20:08:00;;;;;;;5.73;2.83;;;;;25.60;99020.00;;;;16782339;28;20241;-78
2022/08/01 20:16:04;;;;;;;4.37;3.00;;;;;23.80;99060.00;;;;16773865;28;20212;-80
2022/08/01 20:24:10;;;;;;;3.07;2.37;;;;;23.50;99051.00;;;;16798777;28;20644;-80
2022/08/01 20:32:12;;;;;;;3.63;2.60;;;;;23.30;99059.00;;;;16783550;28;20267;-82
2022/08/01 20:40:16;;;;;;;6.07;2.57;;;;;24.00;99047.00;;;;16799390;28;20298;-82
2022/08/01 20:48:19;;;;;;;5.37;3.37;;;;;22.90;99042.00;;;;16809044;28;20232;-81
2022/08/01 20:56:29;;;;;;;1.93;1.73;;;;;22.60;99060.00;;;;16802475;28;20776;-82
2022/08/01 21:04:45;;;;;;;1.83;1.73;;;;;22.50;99071.00;;;;16789809;28;20787;-81
2022/08/01 21:12:54;;;;;;;2.47;1.87;;;;;23.90;99090.00;;;;16807789;28;20206;-82
2022/08/01 21:21:00;;;;;;;1.67;1.50;;;;;23.00;99092.00;;;;16787624;28;20245;-82
2022/08/01 21:29:06;;;;;;;1.70;1.60;;;;;23.70;99099.00;;;;16776205;28;20699;-81
2022/08/01 21:37:09;;;;;;;1.77;1.67;;;;;23.50;99096.00;;;;16787027;28;20263;-81
2022/08/01 21:45:14;;;;;;;5.50;2.83;;;;;22.30;99095.00;;;;16790204;28;20264;-81
2022/08/01 21:53:20;;;;;;;2.43;1.80;;;;;22.70;99097.00;;;;16792289;28;20217;-81
2022/08/01 22:01:30;;;;;;;3.27;2.37;;;;;21.60;99098.00;;;;16792318;28;20212;-80
2022/08/01 22:09:33;;;;;;;2.30;1.83;;;;;21.80;99103.00;;;;16796743;28;20233;-81
2022/08/01 22:17:37;;;;;;;3.93;2.27;;;;;21.60;99100.00;;;;16775924;28;20257;-81
2022/08/01 22:25:40;;;;;;;1.80;1.70;;;;;21.40;99092.00;;;;16779514;28;20218;-81
2022/08/01 22:33:45;;;;;;;2.17;1.97;;;;;22.10;99094.00;;;;16787718;28;20193;-81
2022/08/01 22:41:51;;;;;;;2.00;1.53;;;;;23.00;99096.00;;;;16792785;28;20298;-81
2022/08/01 22:50:04;;;;;;;4.13;1.43;;;;;22.60;99094.00;;;;16772954;28;20796;-80
2022/08/01 22:58:07;;;;;;;3.47;1.70;;;;;21.60;99102.00;;;;16777378;28;20221;-81
2022/08/01 23:06:14;;;;;;;1.97;1.67;;;;;22.30;99098.00;;;;16769052;28;20249;-82
2022/08/01 23:14:17;;;;;;;3.40;1.50;;;;;21.60;99097.00;;;;16771666;28;20571;-81
2022/08/01 23:22:22;;;;;;;1.70;1.33;;;;;21.70;99091.00;;;;16787820;28;20217;-81
2022/08/01 23:30:26;;;;;;;1.87;1.40;;;;;22.00;99089.00;;;;16800366;28;20711;-80
2022/08/01 23:38:29;;;;;;;3.73;2.50;;;;;22.30;99062.00;;;;16780968;28;20304;-81
2022/08/01 23:46:32;;;;;;;2.37;1.90;;;;;21.90;99074.00;;;;16791067;28;20221;-81
2022/08/01 23:54:36;;;;;;;2.30;1.87;;;;;21.40;99068.00;;;;16785148;28;20308;-81
